sensor_id;sensor_type;location;lat;lon;timestamp;P1;durP1;ratioP1;P2;durP2;ratioP2
24337;SDS011;12457;50.832;4.346;2023-05-20T00:00:44;5.53;;;3.45;;
24337;SDS011;12457;50.832;4.346;2023-05-20T00:03:17;7.70;;;4.35;;
24337;SDS011;12457;50.832;4.346;2023-05-20T00:05:46;10.13;;;4.28;;
24337;SDS011;12457;50.832;4.346;2023-05-20T00:08:13;8.98;;;3.90;;
24337;SDS011;12457;50.832;4.346;2023-05-20T00:10:40;9.43;;;3.67;;
24337;SDS011;12457;50.832;4.346;2023-05-20T00:13:11;8.38;;;3.90;;
24337;SDS011;12457;50.832;4.346;2023-05-20T00:15:37;6.45;;;3.22;;
24337;SDS011;12457;50.832;4.346;2023-05-20T00:18:03;9.18;;;4.13;;
24337;SDS011;12457;50.832;4.346;2023-05-20T00:20:29;8.75;;;3.65;;
24337;SDS011;12457;50.832;4.346;2023-05-20T00:22:55;7.50;;;3.70;;
24337;SDS011;12457;50.832;4.346;2023-05-20T00:25:20;10.77;;;3.38;;
24337;SDS011;12457;50.832;4.346;2023-05-20T00:27:51;8.05;;;3.63;;
24337;SDS011;12457;50.832;4.346;2023-05-20T00:30:17;10.07;;;3.83;;
24337;SDS011;12457;50.832;4.346;2023-05-20T00:32:43;7.07;;;3.03;;
24337;SDS011;12457;50.832;4.346;2023-05-20T00:35:08;8.48;;;4.35;;
24337;SDS011;12457;50.832;4.346;2023-05-20T00:37:35;6.38;;;3.95;;
24337;SDS011;12457;50.832;4.346;2023-05-20T00:40:01;10.82;;;3.72;;
24337;SDS011;12457;50.832;4.346;2023-05-20T00:42:27;10.85;;;4.28;;
24337;SDS011;12457;50.832;4.346;2023-05-20T00:48:17;4.70;;;3.65;;
24337;SDS011;12457;50.832;4.346;2023-05-20T00:50:43;7.70;;;4.57;;
24337;SDS011;12457;50.832;4.346;2023-05-20T00:53:11;9.85;;;4.35;;
24337;SDS011;12457;50.832;4.346;2023-05-20T00:55:41;9.82;;;4.03;;
24337;SDS011;12457;50.832;4.346;2023-05-20T00:58:16;13.70;;;4.78;;
24337;SDS011;12457;50.832;4.346;2023-05-20T01:00:43;13.35;;;4.50;;
24337;SDS011;12457;50.832;4.346;2023-05-20T01:03:09;8.77;;;4.80;;
24337;SDS011;12457;50.832;4.346;2023-05-20T01:05:38;12.10;;;4.10;;
24337;SDS011;12457;50.832;4.346;2023-05-20T01:08:03;8.15;;;4.38;;
24337;SDS011;12457;50.832;4.346;2023-05-20T01:10:29;9.18;;;4.05;;
24337;SDS011;12457;50.832;4.346;2023-05-20T01:12:58;9.50;;;3.70;;
24337;SDS011;12457;50.832;4.346;2023-05-20T01:15:35;10.60;;;4.20;;
24337;SDS011;12457;50.832;4.346;2023-05-20T01:18:03;12.85;;;4.32;;
24337;SDS011;12457;50.832;4.346;2023-05-20T01:20:34;11.93;;;4.10;;
24337;SDS011;12457;50.832;4.346;2023-05-20T01:23:01;6.20;;;3.90;;
24337;SDS011;12457;50.832;4.346;2023-05-20T01:25:27;9.80;;;4.57;;
24337;SDS011;12457;50.832;4.346;2023-05-20T01:27:53;7.22;;;3.80;;
24337;SDS011;12457;50.832;4.346;2023-05-20T01:30:32;9.73;;;4.18;;
24337;SDS011;12457;50.832;4.346;2023-05-20T01:33:07;9.50;;;3.78;;
24337;SDS011;12457;50.832;4.346;2023-05-20T01:35:35;8.77;;;4.18;;
24337;SDS011;12457;50.832;4.346;2023-05-20T01:38:03;10.38;;;4.65;;
24337;SDS011;12457;50.832;4.346;2023-05-20T01:40:30;13.32;;;3.50;;
24337;SDS011;12457;50.832;4.346;2023-05-20T01:43:00;8.95;;;4.53;;
24337;SDS011;12457;50.832;4.346;2023-05-20T01:45:30;7.45;;;3.85;;
24337;SDS011;12457;50.832;4.346;2023-05-20T01:47:55;12.73;;;4.13;;
24337;SDS011;12457;50.832;4.346;2023-05-20T01:50:21;10.00;;;4.05;;
24337;SDS011;12457;50.832;4.346;2023-05-20T01:52:47;8.38;;;4.20;;
24337;SDS011;12457;50.832;4.346;2023-05-20T01:55:12;13.95;;;4.70;;
24337;SDS011;12457;50.832;4.346;2023-05-20T01:57:39;9.90;;;4.10;;
24337;SDS011;12457;50.832;4.346;2023-05-20T02:00:05;6.82;;;4.03;;
24337;SDS011;12457;50.832;4.346;2023-05-20T02:02:31;5.28;;;3.80;;
24337;SDS011;12457;50.832;4.346;2023-05-20T02:04:57;10.52;;;4.22;;
24337;SDS011;12457;50.832;4.346;2023-05-20T02:07:23;13.40;;;4.13;;
24337;SDS011;12457;50.832;4.346;2023-05-20T02:09:48;8.60;;;3.95;;
24337;SDS011;12457;50.832;4.346;2023-05-20T02:12:15;9.30;;;3.78;;
24337;SDS011;12457;50.832;4.346;2023-05-20T02:14:44;7.03;;;4.50;;
24337;SDS011;12457;50.832;4.346;2023-05-20T02:17:10;9.82;;;4.43;;
24337;SDS011;12457;50.832;4.346;2023-05-20T02:19:38;10.13;;;4.47;;
24337;SDS011;12457;50.832;4.346;2023-05-20T02:22:05;8.63;;;3.85;;
24337;SDS011;12457;50.832;4.346;2023-05-20T02:24:31;8.90;;;4.18;;
24337;SDS011;12457;50.832;4.346;2023-05-20T02:26:59;9.32;;;3.58;;
24337;SDS011;12457;50.832;4.346;2023-05-20T02:32:49;11.00;;;4.07;;
24337;SDS011;12457;50.832;4.346;2023-05-20T02:35:19;12.10;;;3.83;;
24337;SDS011;12457;50.832;4.346;2023-05-20T02:37:45;6.82;;;3.53;;
24337;SDS011;12457;50.832;4.346;2023-05-20T02:40:12;10.15;;;3.45;;
24337;SDS011;12457;50.832;4.346;2023-05-20T02:42:38;5.95;;;3.40;;
24337;SDS011;12457;50.832;4.346;2023-05-20T02:45:05;7.93;;;4.05;;
24337;SDS011;12457;50.832;4.346;2023-05-20T02:47:32;5.93;;;3.25;;
24337;SDS011;12457;50.832;4.346;2023-05-20T02:49:58;9.85;;;3.60;;
24337;SDS011;12457;50.832;4.346;2023-05-20T02:52:24;6.13;;;3.50;;
24337;SDS011;12457;50.832;4.346;2023-05-20T02:54:50;9.85;;;3.42;;
24337;SDS011;12457;50.832;4.346;2023-05-20T02:57:16;5.25;;;3.55;;
24337;SDS011;12457;50.832;4.346;2023-05-20T03:02:40;8.73;;;3.40;;
24337;SDS011;12457;50.832;4.346;2023-05-20T03:05:28;8.75;;;3.65;;
24337;SDS011;12457;50.832;4.346;2023-05-20T03:07:54;6.32;;;3.55;;
24337;SDS011;12457;50.832;4.346;2023-05-20T03:10:21;6.00;;;3.63;;
24337;SDS011;12457;50.832;4.346;2023-05-20T03:12:46;7.70;;;3.78;;
24337;SDS011;12457;50.832;4.346;2023-05-20T03:18:10;7.35;;;3.30;;
24337;SDS011;12457;50.832;4.346;2023-05-20T03:20:40;7.40;;;3.95;;
24337;SDS011;12457;50.832;4.346;2023-05-20T03:23:06;8.77;;;3.25;;
24337;SDS011;12457;50.832;4.346;2023-05-20T03:25:32;8.85;;;3.85;;
24337;SDS011;12457;50.832;4.346;2023-05-20T03:27:59;9.75;;;3.60;;
24337;SDS011;12457;50.832;4.346;2023-05-20T03:30:28;9.63;;;3.83;;
24337;SDS011;12457;50.832;4.346;2023-05-20T03:32:56;7.25;;;3.83;;
24337;SDS011;12457;50.832;4.346;2023-05-20T03:35:24;7.53;;;3.90;;
24337;SDS011;12457;50.832;4.346;2023-05-20T03:37:50;9.18;;;3.78;;
24337;SDS011;12457;50.832;4.346;2023-05-20T03:40:17;14.48;;;4.45;;
24337;SDS011;12457;50.832;4.346;2023-05-20T03:42:45;11.27;;;3.88;;
24337;SDS011;12457;50.832;4.346;2023-05-20T03:45:16;6.63;;;4.07;;
24337;SDS011;12457;50.832;4.346;2023-05-20T03:47:41;6.90;;;3.35;;
24337;SDS011;12457;50.832;4.346;2023-05-20T03:50:07;11.00;;;4.22;;
24337;SDS011;12457;50.832;4.346;2023-05-20T03:52:33;8.13;;;3.83;;
24337;SDS011;12457;50.832;4.346;2023-05-20T03:54:59;7.82;;;3.65;;
24337;SDS011;12457;50.832;4.346;2023-05-20T03:57:25;11.52;;;4.47;;
24337;SDS011;12457;50.832;4.346;2023-05-20T04:00:03;10.88;;;4.07;;
24337;SDS011;12457;50.832;4.346;2023-05-20T04:02:38;8.93;;;4.13;;
24337;SDS011;12457;50.832;4.346;2023-05-20T04:05:04;8.85;;;3.72;;
24337;SDS011;12457;50.832;4.346;2023-05-20T04:07:32;9.95;;;3.72;;
24337;SDS011;12457;50.832;4.346;2023-05-20T04:10:00;8.25;;;4.15;;
24337;SDS011;12457;50.832;4.346;2023-05-20T04:12:26;10.00;;;4.10;;
24337;SDS011;12457;50.832;4.346;2023-05-20T04:15:06;10.40;;;4.47;;
24337;SDS011;12457;50.832;4.346;2023-05-20T04:17:32;14.73;;;4.32;;
24337;SDS011;12457;50.832;4.346;2023-05-20T04:20:01;8.30;;;4.15;;
24337;SDS011;12457;50.832;4.346;2023-05-20T04:22:29;8.48;;;4.10;;
24337;SDS011;12457;50.832;4.346;2023-05-20T04:24:55;8.30;;;4.95;;
24337;SDS011;12457;50.832;4.346;2023-05-20T04:27:21;8.00;;;4.10;;
24337;SDS011;12457;50.832;4.346;2023-05-20T04:29:56;6.88;;;4.07;;
24337;SDS011;12457;50.832;4.346;2023-05-20T04:32:22;13.38;;;4.40;;
24337;SDS011;12457;50.832;4.346;2023-05-20T04:34:48;18.55;;;5.07;;
24337;SDS011;12457;50.832;4.346;2023-05-20T04:37:14;10.85;;;4.38;;
24337;SDS011;12457;50.832;4.346;2023-05-20T04:39:40;10.43;;;4.30;;
24337;SDS011;12457;50.832;4.346;2023-05-20T04:42:07;13.52;;;4.93;;
24337;SDS011;12457;50.832;4.346;2023-05-20T04:44:33;8.05;;;3.85;;
24337;SDS011;12457;50.832;4.346;2023-05-20T04:46:59;10.10;;;3.92;;
24337;SDS011;12457;50.832;4.346;2023-05-20T04:49:25;11.73;;;4.32;;
24337;SDS011;12457;50.832;4.346;2023-05-20T04:51:51;11.18;;;4.70;;
24337;SDS011;12457;50.832;4.346;2023-05-20T04:54:19;8.27;;;4.30;;
24337;SDS011;12457;50.832;4.346;2023-05-20T04:56:45;8.85;;;3.85;;
24337;SDS011;12457;50.832;4.346;2023-05-20T04:59:11;11.95;;;3.55;;
24337;SDS011;12457;50.832;4.346;2023-05-20T05:01:37;6.88;;;3.60;;
24337;SDS011;12457;50.832;4.346;2023-05-20T05:04:04;9.35;;;3.85;;
24337;SDS011;12457;50.832;4.346;2023-05-20T05:06:30;11.25;;;4.28;;
24337;SDS011;12457;50.832;4.346;2023-05-20T05:08:56;8.63;;;3.80;;
24337;SDS011;12457;50.832;4.346;2023-05-20T05:11:21;9.95;;;4.05;;
24337;SDS011;12457;50.832;4.346;2023-05-20T05:13:47;9.85;;;3.92;;
24337;SDS011;12457;50.832;4.346;2023-05-20T05:19:16;16.90;;;3.65;;
24337;SDS011;12457;50.832;4.346;2023-05-20T05:21:41;7.47;;;3.83;;
24337;SDS011;12457;50.832;4.346;2023-05-20T05:24:07;8.75;;;3.60;;
24337;SDS011;12457;50.832;4.346;2023-05-20T05:26:34;14.48;;;4.32;;
24337;SDS011;12457;50.832;4.346;2023-05-20T05:29:01;9.88;;;3.50;;
24337;SDS011;12457;50.832;4.346;2023-05-20T05:31:26;9.25;;;3.75;;
24337;SDS011;12457;50.832;4.346;2023-05-20T05:33:52;8.60;;;4.20;;
24337;SDS011;12457;50.832;4.346;2023-05-20T05:36:18;9.02;;;4.22;;
24337;SDS011;12457;50.832;4.346;2023-05-20T05:38:43;9.90;;;3.75;;
24337;SDS011;12457;50.832;4.346;2023-05-20T05:41:09;8.25;;;3.63;;
24337;SDS011;12457;50.832;4.346;2023-05-20T05:43:35;11.43;;;3.90;;
24337;SDS011;12457;50.832;4.346;2023-05-20T05:46:00;7.20;;;4.13;;
24337;SDS011;12457;50.832;4.346;2023-05-20T05:48:26;8.65;;;4.63;;
24337;SDS011;12457;50.832;4.346;2023-05-20T05:50:52;11.55;;;4.20;;
24337;SDS011;12457;50.832;4.346;2023-05-20T05:53:18;9.63;;;3.90;;
24337;SDS011;12457;50.832;4.346;2023-05-20T05:55:45;13.23;;;3.88;;
24337;SDS011;12457;50.832;4.346;2023-05-20T05:58:11;9.57;;;3.35;;
24337;SDS011;12457;50.832;4.346;2023-05-20T06:00:37;6.38;;;3.78;;
24337;SDS011;12457;50.832;4.346;2023-05-20T06:03:02;13.25;;;4.32;;
24337;SDS011;12457;50.832;4.346;2023-05-20T06:05:29;11.32;;;3.72;;
24337;SDS011;12457;50.832;4.346;2023-05-20T06:07:55;6.25;;;3.55;;
24337;SDS011;12457;50.832;4.346;2023-05-20T06:10:21;7.75;;;3.60;;
24337;SDS011;12457;50.832;4.346;2023-05-20T06:12:46;10.25;;;3.90;;
24337;SDS011;12457;50.832;4.346;2023-05-20T06:15:13;8.25;;;3.47;;
24337;SDS011;12457;50.832;4.346;2023-05-20T06:17:38;8.90;;;4.05;;
24337;SDS011;12457;50.832;4.346;2023-05-20T06:20:04;11.00;;;4.40;;
24337;SDS011;12457;50.832;4.346;2023-05-20T06:22:31;5.32;;;3.30;;
24337;SDS011;12457;50.832;4.346;2023-05-20T06:24:56;11.68;;;3.60;;
24337;SDS011;12457;50.832;4.346;2023-05-20T06:27:24;4.97;;;3.22;;
24337;SDS011;12457;50.832;4.346;2023-05-20T06:29:51;9.20;;;4.10;;
24337;SDS011;12457;50.832;4.346;2023-05-20T06:32:17;8.68;;;3.83;;
24337;SDS011;12457;50.832;4.346;2023-05-20T06:34:42;10.48;;;3.75;;
24337;SDS011;12457;50.832;4.346;2023-05-20T06:37:09;8.73;;;3.65;;
24337;SDS011;12457;50.832;4.346;2023-05-20T06:39:35;10.05;;;4.15;;
24337;SDS011;12457;50.832;4.346;2023-05-20T06:42:01;5.55;;;3.47;;
24337;SDS011;12457;50.832;4.346;2023-05-20T06:44:27;11.50;;;3.40;;
24337;SDS011;12457;50.832;4.346;2023-05-20T06:46:53;6.40;;;3.22;;
24337;SDS011;12457;50.832;4.346;2023-05-20T06:49:19;5.45;;;3.53;;
24337;SDS011;12457;50.832;4.346;2023-05-20T06:51:47;7.18;;;3.22;;
24337;SDS011;12457;50.832;4.346;2023-05-20T06:54:12;7.57;;;3.92;;
24337;SDS011;12457;50.832;4.346;2023-05-20T06:56:38;8.15;;;3.78;;
24337;SDS011;12457;50.832;4.346;2023-05-20T06:59:04;7.68;;;4.13;;
24337;SDS011;12457;50.832;4.346;2023-05-20T07:04:51;6.30;;;3.90;;
24337;SDS011;12457;50.832;4.346;2023-05-20T07:07:18;10.05;;;4.20;;
24337;SDS011;12457;50.832;4.346;2023-05-20T07:09:45;9.88;;;3.90;;
24337;SDS011;12457;50.832;4.346;2023-05-20T07:12:11;5.93;;;3.45;;
24337;SDS011;12457;50.832;4.346;2023-05-20T07:14:36;12.27;;;4.13;;
24337;SDS011;12457;50.832;4.346;2023-05-20T07:17:03;12.85;;;3.83;;
24337;SDS011;12457;50.832;4.346;2023-05-20T07:19:29;7.55;;;3.80;;
24337;SDS011;12457;50.832;4.346;2023-05-20T07:21:55;8.55;;;3.70;;
24337;SDS011;12457;50.832;4.346;2023-05-20T07:24:21;7.28;;;3.47;;
24337;SDS011;12457;50.832;4.346;2023-05-20T07:26:48;6.93;;;3.47;;
24337;SDS011;12457;50.832;4.346;2023-05-20T07:29:17;8.73;;;3.53;;
24337;SDS011;12457;50.832;4.346;2023-05-20T07:31:42;7.82;;;3.58;;
24337;SDS011;12457;50.832;4.346;2023-05-20T07:34:09;4.38;;;3.08;;
24337;SDS011;12457;50.832;4.346;2023-05-20T07:36:35;10.40;;;3.80;;
24337;SDS011;12457;50.832;4.346;2023-05-20T07:39:05;6.40;;;3.55;;
24337;SDS011;12457;50.832;4.346;2023-05-20T07:41:31;8.70;;;3.60;;
24337;SDS011;12457;50.832;4.346;2023-05-20T07:43:56;8.48;;;3.80;;
24337;SDS011;12457;50.832;4.346;2023-05-20T07:49:10;5.40;;;3.55;;
24337;SDS011;12457;50.832;4.346;2023-05-20T07:51:38;6.72;;;3.70;;
24337;SDS011;12457;50.832;4.346;2023-05-20T07:54:07;11.95;;;3.50;;
24337;SDS011;12457;50.832;4.346;2023-05-20T07:56:33;8.40;;;3.40;;
24337;SDS011;12457;50.832;4.346;2023-05-20T07:58:59;7.53;;;3.72;;
24337;SDS011;12457;50.832;4.346;2023-05-20T08:04:13;6.68;;;3.40;;
24337;SDS011;12457;50.832;4.346;2023-05-20T08:06:39;8.13;;;3.67;;
24337;SDS011;12457;50.832;4.346;2023-05-20T08:09:11;11.77;;;3.30;;
24337;SDS011;12457;50.832;4.346;2023-05-20T08:11:39;8.20;;;3.20;;
24337;SDS011;12457;50.832;4.346;2023-05-20T08:14:05;8.68;;;3.35;;
24337;SDS011;12457;50.832;4.346;2023-05-20T08:16:32;6.65;;;3.90;;
24337;SDS011;12457;50.832;4.346;2023-05-20T08:19:00;5.88;;;3.33;;
24337;SDS011;12457;50.832;4.346;2023-05-20T08:21:25;4.97;;;3.20;;
24337;SDS011;12457;50.832;4.346;2023-05-20T08:23:51;6.15;;;3.03;;
24337;SDS011;12457;50.832;4.346;2023-05-20T08:26:19;5.82;;;3.28;;
24337;SDS011;12457;50.832;4.346;2023-05-20T08:28:46;6.28;;;3.30;;
24337;SDS011;12457;50.832;4.346;2023-05-20T08:31:13;6.93;;;2.97;;
24337;SDS011;12457;50.832;4.346;2023-05-20T08:36:33;5.95;;;3.15;;
24337;SDS011;12457;50.832;4.346;2023-05-20T08:38:59;9.30;;;3.13;;
24337;SDS011;12457;50.832;4.346;2023-05-20T08:41:25;6.70;;;2.47;;
24337;SDS011;12457;50.832;4.346;2023-05-20T08:43:51;4.55;;;2.38;;
24337;SDS011;12457;50.832;4.346;2023-05-20T08:46:18;4.30;;;2.70;;
24337;SDS011;12457;50.832;4.346;2023-05-20T08:48:48;5.53;;;3.33;;
24337;SDS011;12457;50.832;4.346;2023-05-20T08:51:15;3.88;;;2.30;;
24337;SDS011;12457;50.832;4.346;2023-05-20T08:53:46;6.43;;;2.60;;
24337;SDS011;12457;50.832;4.346;2023-05-20T08:56:12;8.70;;;3.17;;
24337;SDS011;12457;50.832;4.346;2023-05-20T08:58:40;5.82;;;2.90;;
24337;SDS011;12457;50.832;4.346;2023-05-20T09:01:07;4.25;;;2.65;;
24337;SDS011;12457;50.832;4.346;2023-05-20T09:03:33;9.68;;;2.97;;
24337;SDS011;12457;50.832;4.346;2023-05-20T09:06:02;3.72;;;2.20;;
24337;SDS011;12457;50.832;4.346;2023-05-20T09:08:31;3.67;;;2.70;;
24337;SDS011;12457;50.832;4.346;2023-05-20T09:10:58;5.18;;;2.97;;
24337;SDS011;12457;50.832;4.346;2023-05-20T09:13:26;7.32;;;2.78;;
24337;SDS011;12457;50.832;4.346;2023-05-20T09:16:02;9.38;;;3.00;;
24337;SDS011;12457;50.832;4.346;2023-05-20T09:18:37;6.60;;;2.78;;
24337;SDS011;12457;50.832;4.346;2023-05-20T09:21:04;7.80;;;2.65;;
24337;SDS011;12457;50.832;4.346;2023-05-20T09:23:36;7.75;;;2.60;;
24337;SDS011;12457;50.832;4.346;2023-05-20T09:26:02;4.65;;;2.67;;
24337;SDS011;12457;50.832;4.346;2023-05-20T09:28:28;2.78;;;2.28;;
24337;SDS011;12457;50.832;4.346;2023-05-20T09:30:57;5.18;;;2.45;;
24337;SDS011;12457;50.832;4.346;2023-05-20T09:33:28;5.68;;;3.00;;
24337;SDS011;12457;50.832;4.346;2023-05-20T09:36:02;3.42;;;2.35;;
24337;SDS011;12457;50.832;4.346;2023-05-20T09:38:30;5.85;;;2.67;;
24337;SDS011;12457;50.832;4.346;2023-05-20T09:41:05;6.75;;;2.70;;
24337;SDS011;12457;50.832;4.346;2023-05-20T09:43:48;9.88;;;2.65;;
24337;SDS011;12457;50.832;4.346;2023-05-20T09:46:16;8.13;;;2.58;;
24337;SDS011;12457;50.832;4.346;2023-05-20T09:52:06;5.03;;;2.20;;
24337;SDS011;12457;50.832;4.346;2023-05-20T09:54:33;4.53;;;2.47;;
24337;SDS011;12457;50.832;4.346;2023-05-20T09:57:07;7.40;;;2.30;;
24337;SDS011;12457;50.832;4.346;2023-05-20T09:59:36;3.60;;;2.13;;
24337;SDS011;12457;50.832;4.346;2023-05-20T10:02:04;7.15;;;2.22;;
24337;SDS011;12457;50.832;4.346;2023-05-20T10:04:33;4.85;;;2.58;;
24337;SDS011;12457;50.832;4.346;2023-05-20T10:07:17;3.88;;;2.53;;
24337;SDS011;12457;50.832;4.346;2023-05-20T10:10:24;6.30;;;2.50;;
24337;SDS011;12457;50.832;4.346;2023-05-20T10:12:58;7.00;;;2.30;;
24337;SDS011;12457;50.832;4.346;2023-05-20T10:21:16;5.85;;;2.83;;
24337;SDS011;12457;50.832;4.346;2023-05-20T10:23:48;7.20;;;2.47;;
24337;SDS011;12457;50.832;4.346;2023-05-20T10:26:16;7.65;;;2.60;;
24337;SDS011;12457;50.832;4.346;2023-05-20T10:28:42;7.53;;;2.85;;
24337;SDS011;12457;50.832;4.346;2023-05-20T10:31:17;8.38;;;2.70;;
24337;SDS011;12457;50.832;4.346;2023-05-20T10:33:51;7.55;;;2.45;;
24337;SDS011;12457;50.832;4.346;2023-05-20T10:36:27;3.45;;;2.78;;
24337;SDS011;12457;50.832;4.346;2023-05-20T10:38:55;6.75;;;2.60;;
24337;SDS011;12457;50.832;4.346;2023-05-20T10:41:26;5.68;;;2.65;;
24337;SDS011;12457;50.832;4.346;2023-05-20T10:44:02;4.00;;;2.03;;
24337;SDS011;12457;50.832;4.346;2023-05-20T10:46:30;11.45;;;2.78;;
24337;SDS011;12457;50.832;4.346;2023-05-20T10:49:18;5.70;;;2.40;;
24337;SDS011;12457;50.832;4.346;2023-05-20T10:51:47;6.65;;;2.55;;
24337;SDS011;12457;50.832;4.346;2023-05-20T10:54:13;6.60;;;2.83;;
24337;SDS011;12457;50.832;4.346;2023-05-20T10:56:49;6.25;;;2.70;;
24337;SDS011;12457;50.832;4.346;2023-05-20T10:59:18;3.95;;;2.45;;
24337;SDS011;12457;50.832;4.346;2023-05-20T11:01:48;11.45;;;3.10;;
24337;SDS011;12457;50.832;4.346;2023-05-20T11:04:16;8.10;;;2.45;;
24337;SDS011;12457;50.832;4.346;2023-05-20T11:06:49;2.72;;;2.30;;
24337;SDS011;12457;50.832;4.346;2023-05-20T11:09:18;4.75;;;2.60;;
24337;SDS011;12457;50.832;4.346;2023-05-20T11:11:47;5.38;;;2.63;;
24337;SDS011;12457;50.832;4.346;2023-05-20T11:14:14;7.40;;;2.85;;
24337;SDS011;12457;50.832;4.346;2023-05-20T11:16:58;5.50;;;2.47;;
24337;SDS011;12457;50.832;4.346;2023-05-20T11:19:24;3.17;;;2.33;;
24337;SDS011;12457;50.832;4.346;2023-05-20T11:21:54;7.40;;;2.70;;
24337;SDS011;12457;50.832;4.346;2023-05-20T11:24:25;3.75;;;2.45;;
24337;SDS011;12457;50.832;4.346;2023-05-20T11:26:55;7.55;;;2.72;;
24337;SDS011;12457;50.832;4.346;2023-05-20T11:29:25;4.63;;;2.28;;
24337;SDS011;12457;50.832;4.346;2023-05-20T11:31:56;6.68;;;2.65;;
24337;SDS011;12457;50.832;4.346;2023-05-20T11:34:33;5.10;;;2.90;;
24337;SDS011;12457;50.832;4.346;2023-05-20T11:37:00;6.07;;;2.90;;
24337;SDS011;12457;50.832;4.346;2023-05-20T11:39:30;3.08;;;2.22;;
24337;SDS011;12457;50.832;4.346;2023-05-20T11:41:57;3.42;;;2.45;;
24337;SDS011;12457;50.832;4.346;2023-05-20T11:44:24;5.68;;;2.70;;
24337;SDS011;12457;50.832;4.346;2023-05-20T11:46:50;4.18;;;2.60;;
24337;SDS011;12457;50.832;4.346;2023-05-20T11:49:23;4.68;;;2.30;;
24337;SDS011;12457;50.832;4.346;2023-05-20T11:51:49;6.50;;;2.78;;
24337;SDS011;12457;50.832;4.346;2023-05-20T11:54:18;7.18;;;2.88;;
24337;SDS011;12457;50.832;4.346;2023-05-20T11:56:46;8.63;;;2.75;;
24337;SDS011;12457;50.832;4.346;2023-05-20T11:59:13;4.80;;;2.45;;
24337;SDS011;12457;50.832;4.346;2023-05-20T12:01:38;4.85;;;2.40;;
24337;SDS011;12457;50.832;4.346;2023-05-20T12:04:08;16.13;;;5.25;;
24337;SDS011;12457;50.832;4.346;2023-05-20T12:06:37;7.40;;;3.08;;
24337;SDS011;12457;50.832;4.346;2023-05-20T12:09:05;2.22;;;2.03;;
24337;SDS011;12457;50.832;4.346;2023-05-20T12:11:35;4.65;;;2.50;;
24337;SDS011;12457;50.832;4.346;2023-05-20T12:14:04;2.58;;;1.88;;
24337;SDS011;12457;50.832;4.346;2023-05-20T12:16:31;5.20;;;2.40;;
24337;SDS011;12457;50.832;4.346;2023-05-20T12:18:57;4.88;;;2.45;;
24337;SDS011;12457;50.832;4.346;2023-05-20T12:21:25;5.45;;;2.60;;
24337;SDS011;12457;50.832;4.346;2023-05-20T12:23:53;6.05;;;2.60;;
24337;SDS011;12457;50.832;4.346;2023-05-20T12:26:22;3.38;;;2.25;;
24337;SDS011;12457;50.832;4.346;2023-05-20T12:28:50;3.53;;;2.50;;
24337;SDS011;12457;50.832;4.346;2023-05-20T12:31:17;5.55;;;2.72;;
24337;SDS011;12457;50.832;4.346;2023-05-20T12:33:43;5.50;;;2.13;;
24337;SDS011;12457;50.832;4.346;2023-05-20T12:36:09;5.88;;;2.60;;
24337;SDS011;12457;50.832;4.346;2023-05-20T12:38:48;3.20;;;2.35;;
24337;SDS011;12457;50.832;4.346;2023-05-20T12:41:14;3.72;;;2.20;;
24337;SDS011;12457;50.832;4.346;2023-05-20T12:43:40;7.43;;;2.50;;
24337;SDS011;12457;50.832;4.346;2023-05-20T12:46:06;5.72;;;2.20;;
24337;SDS011;12457;50.832;4.346;2023-05-20T12:48:32;5.82;;;2.83;;
24337;SDS011;12457;50.832;4.346;2023-05-20T12:51:12;4.63;;;2.40;;
24337;SDS011;12457;50.832;4.346;2023-05-20T12:53:40;6.72;;;2.33;;
24337;SDS011;12457;50.832;4.346;2023-05-20T12:56:06;3.08;;;2.25;;
24337;SDS011;12457;50.832;4.346;2023-05-20T12:58:33;7.18;;;3.00;;
24337;SDS011;12457;50.832;4.346;2023-05-20T13:00:59;4.63;;;2.30;;
24337;SDS011;12457;50.832;4.346;2023-05-20T13:03:25;7.57;;;2.88;;
24337;SDS011;12457;50.832;4.346;2023-05-20T13:05:51;4.32;;;2.17;;
24337;SDS011;12457;50.832;4.346;2023-05-20T13:08:16;8.82;;;2.63;;
24337;SDS011;12457;50.832;4.346;2023-05-20T13:10:42;7.13;;;2.35;;
24337;SDS011;12457;50.832;4.346;2023-05-20T13:13:08;5.18;;;2.67;;
24337;SDS011;12457;50.832;4.346;2023-05-20T13:15:37;5.80;;;2.63;;
24337;SDS011;12457;50.832;4.346;2023-05-20T13:18:03;5.07;;;1.92;;
24337;SDS011;12457;50.832;4.346;2023-05-20T13:20:30;6.25;;;2.25;;
24337;SDS011;12457;50.832;4.346;2023-05-20T13:22:56;3.97;;;2.42;;
24337;SDS011;12457;50.832;4.346;2023-05-20T13:25:22;5.82;;;2.20;;
24337;SDS011;12457;50.832;4.346;2023-05-20T13:27:48;4.80;;;2.08;;
24337;SDS011;12457;50.832;4.346;2023-05-20T13:30:15;3.53;;;2.20;;
24337;SDS011;12457;50.832;4.346;2023-05-20T13:32:41;5.65;;;2.70;;
24337;SDS011;12457;50.832;4.346;2023-05-20T13:35:07;7.05;;;2.30;;
24337;SDS011;12457;50.832;4.346;2023-05-20T13:37:32;4.05;;;2.28;;
24337;SDS011;12457;50.832;4.346;2023-05-20T13:40:00;6.22;;;2.30;;
24337;SDS011;12457;50.832;4.346;2023-05-20T13:42:27;4.13;;;2.00;;
24337;SDS011;12457;50.832;4.346;2023-05-20T13:44:52;5.45;;;2.65;;
24337;SDS011;12457;50.832;4.346;2023-05-20T13:47:18;7.30;;;1.90;;
24337;SDS011;12457;50.832;4.346;2023-05-20T13:49:44;2.25;;;2.05;;
24337;SDS011;12457;50.832;4.346;2023-05-20T13:52:10;8.52;;;2.13;;
24337;SDS011;12457;50.832;4.346;2023-05-20T13:54:36;3.42;;;2.28;;
24337;SDS011;12457;50.832;4.346;2023-05-20T13:57:02;3.05;;;2.13;;
24337;SDS011;12457;50.832;4.346;2023-05-20T13:59:31;4.78;;;2.28;;
24337;SDS011;12457;50.832;4.346;2023-05-20T14:01:57;2.15;;;1.77;;
24337;SDS011;12457;50.832;4.346;2023-05-20T14:04:24;3.78;;;1.83;;
24337;SDS011;12457;50.832;4.346;2023-05-20T14:06:50;4.20;;;2.13;;
24337;SDS011;12457;50.832;4.346;2023-05-20T14:09:17;4.40;;;2.25;;
24337;SDS011;12457;50.832;4.346;2023-05-20T14:11:42;6.03;;;2.17;;
24337;SDS011;12457;50.832;4.346;2023-05-20T14:14:13;5.45;;;1.98;;
24337;SDS011;12457;50.832;4.346;2023-05-20T14:16:40;4.68;;;2.13;;
24337;SDS011;12457;50.832;4.346;2023-05-20T14:19:06;5.18;;;2.28;;
24337;SDS011;12457;50.832;4.346;2023-05-20T14:21:47;4.43;;;1.80;;
24337;SDS011;12457;50.832;4.346;2023-05-20T14:24:13;2.92;;;1.60;;
24337;SDS011;12457;50.832;4.346;2023-05-20T14:26:39;3.88;;;1.90;;
24337;SDS011;12457;50.832;4.346;2023-05-20T14:29:05;3.78;;;1.75;;
24337;SDS011;12457;50.832;4.346;2023-05-20T14:31:30;3.63;;;2.20;;
24337;SDS011;12457;50.832;4.346;2023-05-20T14:33:57;3.20;;;2.28;;
24337;SDS011;12457;50.832;4.346;2023-05-20T14:36:23;6.43;;;2.10;;
24337;SDS011;12457;50.832;4.346;2023-05-20T14:38:49;4.63;;;2.40;;
24337;SDS011;12457;50.832;4.346;2023-05-20T14:41:15;3.30;;;2.03;;
24337;SDS011;12457;50.832;4.346;2023-05-20T14:43:40;4.57;;;1.90;;
24337;SDS011;12457;50.832;4.346;2023-05-20T14:46:06;3.97;;;2.20;;
24337;SDS011;12457;50.832;4.346;2023-05-20T14:48:32;3.83;;;2.13;;
24337;SDS011;12457;50.832;4.346;2023-05-20T14:50:57;2.28;;;1.83;;
24337;SDS011;12457;50.832;4.346;2023-05-20T14:53:24;2.58;;;1.80;;
24337;SDS011;12457;50.832;4.346;2023-05-20T14:55:51;3.45;;;2.20;;
24337;SDS011;12457;50.832;4.346;2023-05-20T14:58:18;2.63;;;1.95;;
24337;SDS011;12457;50.832;4.346;2023-05-20T15:00:44;5.35;;;2.22;;
24337;SDS011;12457;50.832;4.346;2023-05-20T15:03:11;4.72;;;2.47;;
24337;SDS011;12457;50.832;4.346;2023-05-20T15:05:39;2.85;;;2.08;;
24337;SDS011;12457;50.832;4.346;2023-05-20T15:08:06;3.50;;;2.10;;
24337;SDS011;12457;50.832;4.346;2023-05-20T15:10:32;3.30;;;2.00;;
24337;SDS011;12457;50.832;4.346;2023-05-20T15:13:02;2.17;;;1.95;;
24337;SDS011;12457;50.832;4.346;2023-05-20T15:15:28;3.17;;;2.30;;
24337;SDS011;12457;50.832;4.346;2023-05-20T15:17:53;6.75;;;2.10;;
24337;SDS011;12457;50.832;4.346;2023-05-20T15:20:20;2.63;;;1.95;;
24337;SDS011;12457;50.832;4.346;2023-05-20T15:22:46;6.28;;;2.38;;
24337;SDS011;12457;50.832;4.346;2023-05-20T15:25:12;3.60;;;2.38;;